Time;durP1;ratioP1;P1;durP2;ratioP2;P2;SDS_P1;SDS_P2;PMS_P1;PMS_P2;Temp;Humidity;BMP_temperature;BMP_pressure;BME280_temperature;BME280_humidity;BME280_pressure;Samples;Min_cycle;Max_cycle;Signal;HPM_P1;HPM_P2
2022/12/21 01:19:15;;;;;;;20.70;11.70;;;;;;;2.94;97.95;101502.91;106247;1300;557978;-66
2022/12/21 01:21:43;;;;;;;17.90;10.00;;;;;;;5.00;81.49;101486.33;106227;1300;21963;-59
2022/12/21 01:24:11;;;;;;;14.90;8.50;;;;;;;5.56;75.07;101475.67;106191;1301;21961;-60
2022/12/21 01:26:36;;;;;;;16.40;9.10;;;;;;;5.81;72.58;101467.61;106192;1303;23092;-60
2022/12/21 01:29:02;;;;;;;15.80;8.90;;;;;;;5.94;71.32;101462.86;106123;1302;21965;-61
2022/12/21 01:31:28;;;;;;;19.50;9.10;;;;;;;6.04;70.07;101460.88;106105;1300;384433;-60
2022/12/21 01:33:54;;;;;;;17.90;9.30;;;;;;;6.13;69.15;101458.64;106483;1300;21975;-60
2022/12/21 01:36:20;;;;;;;15.10;8.40;;;;;;;6.22;68.68;101458.30;106734;1300;21951;-60
2022/12/21 01:38:46;;;;;;;17.50;8.50;;;;;;;6.20;68.37;101463.50;106798;1300;21942;-60
2022/12/21 01:41:24;;;;;;;18.80;8.70;;;;;;;6.16;67.88;101466.02;106762;1300;21954;-61
2022/12/21 01:44:00;;;;;;;17.10;9.70;;;;;;;6.13;67.23;101462.30;105891;1299;1002433;-61
2022/12/21 01:46:33;;;;;;;16.20;10.20;;;;;;;6.10;67.32;101462.58;106479;1300;22053;-60
2022/12/21 01:49:00;;;;;;;16.10;8.80;;;;;;;6.08;67.39;101456.63;105839;1300;1006338;-67
2022/12/21 01:51:26;;;;;;;15.00;8.70;;;;;;;6.07;67.47;101450.33;106483;1300;21967;-60
2022/12/21 01:53:57;;;;;;;14.70;7.30;;;;;;;6.13;67.00;101444.00;106271;1300;21950;-67
2022/12/21 01:56:26;;;;;;;17.20;8.90;;;;;;;6.01;66.98;101440.40;106489;1300;21939;-61
2022/12/21 01:58:52;;;;;;;14.70;8.10;;;;;;;6.11;66.62;101431.41;106616;1300;21962;-67
2022/12/21 02:01:19;;;;;;;16.70;8.60;;;;;;;6.15;66.18;101419.66;106621;1300;22013;-60
2022/12/21 02:03:49;;;;;;;14.90;7.80;;;;;;;6.14;65.69;101412.66;106739;1293;21952;-61
2022/12/21 02:06:15;;;;;;;17.00;8.40;;;;;;;6.15;65.42;101411.13;106542;1298;21959;-67
2022/12/21 02:08:42;;;;;;;13.40;7.70;;;;;;;6.22;65.23;101412.13;106696;1299;21970;-61
2022/12/21 02:11:08;;;;;;;15.40;8.70;;;;;;;6.24;65.15;101412.70;106432;1300;21963;-61
2022/12/21 02:13:35;;;;;;;15.60;8.70;;;;;;;6.23;64.94;101413.73;106400;1298;21945;-67
2022/12/21 02:16:22;;;;;;;15.00;8.00;;;;;;;6.24;64.94;101411.84;106585;1300;21957;-67
2022/12/21 02:19:01;;;;;;;16.00;7.80;;;;;;;6.25;64.85;101407.66;106451;1295;22010;-67
2022/12/21 02:21:51;;;;;;;13.90;8.20;;;;;;;6.18;65.14;101408.76;106579;1300;21958;-60
2022/12/21 02:24:23;;;;;;;14.60;7.60;;;;;;;6.20;65.17;101410.34;106603;1300;21961;-60
2022/12/21 02:27:14;;;;;;;14.20;8.40;;;;;;;6.18;65.38;101410.14;106716;1300;21950;-66
2022/12/21 02:30:01;;;;;;;14.70;8.00;;;;;;;6.14;65.42;101405.69;106725;1298;21972;-60
2022/12/21 02:32:30;;;;;;;18.90;9.10;;;;;;;6.19;65.04;101404.41;106469;1300;21955;-66
2022/12/21 02:35:54;;;;;;;15.30;7.80;;;;;;;6.00;65.55;101401.35;106484;1300;21951;-67
2022/12/21 02:38:34;;;;;;;15.10;7.40;;;;;;;5.80;65.82;101398.79;105711;1308;22109;-60
2022/12/21 02:41:18;;;;;;;;;;;;;;;5.59;66.08;101394.28;105720;1309;21943;-67
2022/12/21 02:44:16;;;;;;;14.40;7.70;;;;;;;5.49;66.49;101392.81;106494;1300;21957;-67
2022/12/21 02:46:47;;;;;;;15.70;7.50;;;;;;;5.35;66.40;101392.11;106371;1300;22426;-67
2022/12/21 02:49:41;;;;;;;19.30;8.70;;;;;;;5.43;66.43;101396.84;106441;1300;21958;-66
2022/12/21 02:52:33;;;;;;;15.00;8.30;;;;;;;5.39;66.05;101393.61;106671;1300;21952;-67
2022/12/21 02:54:59;;;;;;;15.10;8.90;;;;;;;5.34;66.02;101390.17;106393;1300;23103;-61
2022/12/21 02:57:35;;;;;;;15.70;8.30;;;;;;;5.32;66.38;101390.82;106398;1300;21978;-67
2022/12/21 03:00:03;;;;;;;15.50;8.80;;;;;;;5.25;66.40;101383.68;106656;1300;21957;-60
2022/12/21 03:02:40;;;;;;;16.00;9.00;;;;;;;5.17;65.84;101378.08;106497;1300;21999;-67
2022/12/21 03:05:18;;;;;;;15.90;8.20;;;;;;;5.19;66.01;101375.52;106464;1300;21990;-67
2022/12/21 03:07:54;;;;;;;12.10;7.20;;;;;;;5.16;66.10;101373.70;106739;1300;22055;-60
2022/12/21 03:10:56;;;;;;;15.60;7.90;;;;;;;5.14;66.00;101371.38;106006;1300;1002311;-64
2022/12/21 03:13:46;;;;;;;16.70;8.20;;;;;;;5.08;66.16;101368.95;106733;1296;22436;-60
2022/12/21 03:16:51;;;;;;;14.80;7.80;;;;;;;5.04;66.36;101366.64;106000;1300;1002571;-67
2022/12/21 03:19:53;;;;;;;14.70;7.90;;;;;;;5.04;66.23;101362.79;106460;1300;21952;-67
2022/12/21 03:22:31;;;;;;;13.60;7.30;;;;;;;4.93;66.32;101366.68;106060;1300;21962;-60
2022/12/21 03:25:22;;;;;;;15.60;8.70;;;;;;;5.09;66.19;101370.37;106430;1300;21951;-67
2022/12/21 03:27:51;;;;;;;16.10;7.50;;;;;;;5.09;65.99;101368.98;106431;1300;21961;-60
2022/12/21 03:30:18;;;;;;;13.70;7.20;;;;;;;5.13;65.94;101365.25;106201;1298;21987;-67
2022/12/21 03:33:05;;;;;;;14.70;8.10;;;;;;;5.17;65.57;101363.44;106486;1298;21950;-60
2022/12/21 03:35:30;;;;;;;15.50;8.30;;;;;;;5.14;65.60;101354.00;106743;1300;21959;-67
2022/12/21 03:37:57;;;;;;;14.40;7.80;;;;;;;5.05;65.42;101343.34;106729;1300;21956;-67
2022/12/21 03:40:24;;;;;;;14.70;8.50;;;;;;;5.01;65.35;101336.61;105802;1300;1002833;-67
2022/12/21 03:42:55;;;;;;;16.10;8.40;;;;;;;5.00;65.15;101331.73;106469;1300;21995;-61
2022/12/21 03:45:26;;;;;;;19.90;8.70;;;;;;;4.96;65.47;101331.08;106500;1300;23749;-67
2022/12/21 03:47:56;;;;;;;14.70;8.00;;;;;;;4.84;65.32;101330.61;106692;1298;23599;-60
2022/12/21 03:50:23;;;;;;;17.30;8.70;;;;;;;4.85;65.35;101325.94;106474;1300;21958;-60
2022/12/21 03:52:53;;;;;;;14.00;7.50;;;;;;;4.84;65.39;101329.39;106449;1300;21955;-60
2022/12/21 03:55:24;;;;;;;15.40;8.30;;;;;;;4.85;65.44;101334.63;106827;1300;22244;-60
2022/12/21 10:12:18;;;;;;;15.30;7.60;;;;;;;5.71;95.32;101219.07;105152;1310;549769;-67
2022/12/21 10:15:16;;;;;;;13.70;8.20;;;;;;;8.91;78.93;101203.19;105359;1313;21979;-68
2022/12/21 10:17:45;;;;;;;15.30;7.40;;;;;;;9.53;74.01;101196.45;105509;1313;22016;-60
2022/12/21 10:20:48;;;;;;;15.40;7.70;;;;;;;9.98;71.57;101185.60;105419;1302;22086;-67
2022/12/21 10:23:44;;;;;;;10.90;7.10;;;;;;;10.28;69.54;101174.10;104425;1310;1479518;-68
2022/12/21 10:26:13;;;;;;;12.90;6.90;;;;;;;10.48;68.48;101172.40;105613;1309;21958;-59
2022/12/21 10:28:49;;;;;;;13.00;6.70;;;;;;;10.55;66.30;101173.29;105622;1301;22023;-58
2022/12/21 10:31:24;;;;;;;13.40;6.80;;;;;;;10.61;65.11;101175.40;105741;1309;21940;-60
2022/12/21 10:33:54;;;;;;;13.00;7.00;;;;;;;10.75;65.11;101181.36;105720;1308;23806;-67
2022/12/21 10:36:55;;;;;;;12.40;6.50;;;;;;;10.66;61.83;101182.77;105823;1306;24866;-59
2022/12/21 10:39:23;;;;;;;13.10;7.10;;;;;;;10.69;61.86;101191.02;105806;1306;21956;-68
2022/12/21 10:42:11;;;;;;;10.20;6.70;;;;;;;11.02;63.29;101193.11;105637;1304;22473;-61
2022/12/21 10:44:41;;;;;;;13.20;7.30;;;;;;;11.00;61.14;101188.20;105720;1306;22275;-61
2022/12/21 10:47:34;;;;;;;15.00;7.50;;;;;;;10.79;62.35;101191.37;105801;1298;23069;-61
2022/12/21 10:50:20;;;;;;;15.20;8.20;;;;;;;10.61;59.87;101190.48;105815;1306;21955;-61
2022/12/21 10:52:52;;;;;;;12.90;7.30;;;;;;;10.66;62.14;101192.23;105821;1306;23761;-61
2022/12/21 10:55:20;;;;;;;12.80;7.70;;;;;;;10.65;61.47;101190.48;105760;1306;23117;-61
2022/12/21 10:58:01;;;;;;;14.70;9.50;;;;;;;10.71;61.82;101179.95;105848;1306;21957;-69
2022/12/21 11:01:17;;;;;;;41.60;20.60;;;;;;;10.76;62.46;101174.00;105776;1306;21984;-69
2022/12/21 11:04:10;;;;;;;19.60;10.60;;;;;;;10.88;62.28;101171.88;105749;1306;23807;-68
2022/12/21 11:07:00;;;;;;;14.30;6.40;;;;;;;11.03;62.34;101167.82;105880;1304;21987;-67
2022/12/21 11:09:42;;;;;;;12.10;7.30;;;;;;;11.26;62.97;101158.81;105937;1306;21948;-59
2022/12/21 11:12:24;;;;;;;10.70;6.10;;;;;;;11.40;61.88;101155.27;105638;1307;21964;-67
2022/12/21 11:14:55;;;;;;;15.10;9.40;;;;;;;11.50;62.22;101156.45;105769;1306;23053;-60
2022/12/21 11:17:29;;;;;;;12.50;7.30;;;;;;;11.39;60.38;101160.88;105684;1306;23488;-68
2022/12/21 11:20:19;;;;;;;13.30;6.70;;;;;;;11.32;60.92;101162.14;104781;1312;1002410;-68
2022/12/21 11:22:47;;;;;;;11.70;7.70;;;;;;;11.16;58.68;101166.20;105379;1310;23654;-68
2022/12/21 11:25:20;;;;;;;12.00;7.50;;;;;;;11.01;57.78;101164.13;105521;1310;21981;-59
2022/12/21 11:27:53;;;;;;;11.90;7.40;;;;;;;10.93;58.20;101161.69;105596;1309;21960;-59
2022/12/21 11:30:28;;;;;;;12.00;6.80;;;;;;;10.89;57.44;101159.23;105601;1309;21994;-59
2022/12/21 11:32:57;;;;;;;14.50;8.30;;;;;;;10.94;57.52;101156.77;105703;1303;21991;-68
2022/12/21 11:35:30;;;;;;;14.10;7.80;;;;;;;10.74;55.87;101156.77;105693;1306;21960;-59
2022/12/21 11:38:18;;;;;;;11.20;6.00;;;;;;;10.45;57.83;101155.36;105628;1307;21953;-67
2022/12/21 11:40:57;;;;;;;13.20;6.50;;;;;;;10.39;59.40;101151.31;105587;1306;21983;-59
2022/12/21 11:43:25;;;;;;;13.60;7.50;;;;;;;10.45;59.53;101147.83;105748;1306;21981;-59
2022/12/21 11:46:28;;;;;;;10.80;6.00;;;;;;;10.43;59.30;101151.52;105792;1306;21932;-69
2022/12/21 11:49:25;;;;;;;11.20;6.40;;;;;;;10.47;60.04;101159.77;105625;1306;21967;-69
2022/12/21 11:52:27;;;;;;;10.90;5.60;;;;;;;10.47;59.97;101160.13;105642;1306;21959;-59
2022/12/21 11:55:26;;;;;;;11.10;6.40;;;;;;;10.57;60.05;101158.55;105707;1300;21980;-60
2022/12/21 11:58:17;;;;;;;12.00;6.50;;;;;;;10.87;60.37;101163.27;105461;1308;21975;-68
2022/12/21 12:00:56;;;;;;;10.10;6.10;;;;;;;10.74;59.94;101159.59;105654;1307;21965;-60
2022/12/21 12:03:34;;;;;;;12.60;7.60;;;;;;;10.59;57.84;101161.00;105645;1307;21965;-68
2022/12/21 12:06:30;;;;;;;12.60;6.90;;;;;;;10.85;58.37;101154.50;105718;1307;21986;-69
2022/12/21 12:09:46;;;;;;;11.20;6.70;;;;;;;11.00;57.95;101149.74;105639;1308;21963;-69
2022/12/21 12:12:23;;;;;;;13.30;7.20;;;;;;;11.04;58.74;101156.41;105585;1291;21966;-60
2022/12/21 12:15:24;;;;;;;12.40;6.60;;;;;;;11.00;59.00;101160.45;105675;1309;23220;-69
2022/12/21 12:18:03;;;;;;;11.00;6.00;;;;;;;11.00;59.04;101164.31;105616;1308;21974;-60
2022/12/21 12:20:51;;;;;;;10.20;5.40;;;;;;;10.96;58.86;101162.21;105707;1308;22243;-69
2022/12/21 12:23:17;;;;;;;9.40;5.80;;;;;;;10.95;58.76;101162.20;105657;1304;21950;-69
2022/12/21 12:25:48;;;;;;;11.20;6.30;;;;;;;11.03;59.27;101162.20;105659;1308;21961;-59
2022/12/21 12:28:31;;;;;;;9.50;5.80;;;;;;;11.08;58.88;101159.73;105846;1305;22003;-69
2022/12/21 12:31:22;;;;;;;14.20;7.00;;;;;;;11.13;59.43;101157.44;106151;1300;21955;-70
2022/12/21 12:33:53;;;;;;;11.90;6.60;;;;;;;11.11;58.61;101149.36;106064;1291;22535;-61
2022/12/21 12:36:38;;;;;;;14.00;8.00;;;;;;;10.99;57.12;101143.59;106055;1303;21954;-61
2022/12/21 12:39:46;;;;;;;15.40;9.10;;;;;;;10.95;57.26;101140.08;106054;1295;21956;-61
2022/12/21 12:42:30;;;;;;;29.00;16.50;;;;;;;10.94;57.54;101142.20;105812;1303;21969;-68
2022/12/21 12:45:11;;;;;;;48.00;29.30;;;;;;;10.93;57.77;101141.84;105997;1291;21966;-60
2022/12/21 12:47:55;;;;;;;26.00;16.60;;;;;;;10.93;56.78;101144.31;105986;1300;21967;-60
2022/12/21 12:50:53;;;;;;;18.10;10.40;;;;;;;10.89;56.56;101142.20;106111;1296;21949;-60
2022/12/21 12:53:48;;;;;;;25.50;13.40;;;;;;;10.85;56.30;101133.41;106007;1292;21954;-60
2022/12/21 12:56:44;;;;;;;12.90;8.00;;;;;;;10.93;57.21;101127.09;106016;1302;23732;-60
2022/12/21 12:59:46;;;;;;;11.00;7.20;;;;;;;11.02;58.08;101117.94;106031;1303;21947;-69
2022/12/21 13:02:33;;;;;;;14.40;8.40;;;;;;;11.05;57.75;101114.42;105893;1303;21957;-68
2022/12/21 13:05:06;;;;;;;14.80;8.00;;;;;;;11.11;56.83;101111.95;106011;1303;22047;-60
2022/12/21 13:07:44;;;;;;;10.20;6.40;;;;;;;11.07;56.61;101110.02;105982;1303;22161;-59
2022/12/21 19:21:38;;;;;;;23.80;20.00;;;;;;;4.62;100.00;101013.58;105183;1302;548123;-60
2022/12/21 19:24:05;;;;;;;19.70;16.10;;;;;;;7.70;94.32;100994.07;105339;1312;21995;-59
2022/12/21 19:26:33;;;;;;;18.10;12.50;;;;;;;8.18;86.64;100988.39;105268;1312;21975;-61
2022/12/21 19:28:59;;;;;;;13.60;9.90;;;;;;;8.45;83.72;100986.48;105137;1299;21980;-60
2022/12/21 19:31:25;;;;;;;12.40;8.70;;;;;;;8.62;81.55;100983.27;105096;1312;21978;-60
2022/12/21 19:33:56;;;;;;;12.50;9.90;;;;;;;8.70;80.15;100981.04;105158;1312;185568;-66
2022/12/21 19:36:22;;;;;;;13.70;8.80;;;;;;;8.79;79.29;100983.71;105507;1312;21981;-66
2022/12/21 19:38:48;;;;;;;11.60;8.40;;;;;;;8.91;78.56;100988.84;105495;1312;21974;-66
2022/12/21 19:41:14;;;;;;;13.60;10.20;;;;;;;8.95;77.69;100987.98;105485;1312;21969;-60
2022/12/21 19:43:40;;;;;;;10.90;7.90;;;;;;;9.08;77.11;100982.77;105507;1312;21986;-66
2022/12/21 19:46:14;;;;;;;14.20;7.90;;;;;;;9.14;76.68;100984.54;105484;1311;21980;-66
2022/12/21 19:48:40;;;;;;;10.70;5.50;;;;;;;9.16;76.31;100980.88;105549;1310;22017;-66
2022/12/21 19:51:08;;;;;;;10.40;6.00;;;;;;;9.24;76.04;100970.40;105482;1301;21968;-66
2022/12/21 19:53:37;;;;;;;8.80;5.10;;;;;;;9.28;75.63;100974.77;105544;1310;21795;-60
2022/12/21 19:56:03;;;;;;;10.60;5.60;;;;;;;9.29;75.31;100977.06;105563;1298;22444;-66
2022/12/21 19:58:36;;;;;;;14.70;6.50;;;;;;;9.34;75.36;100977.60;105503;1303;21994;-61
2022/12/21 20:01:02;;;;;;;15.00;6.80;;;;;;;9.44;75.03;100975.00;105573;1312;21977;-61
2022/12/21 20:03:28;;;;;;;13.90;6.40;;;;;;;9.46;74.88;100978.85;105552;1304;21988;-60
2022/12/21 20:05:55;;;;;;;15.50;7.40;;;;;;;9.50;74.42;100983.94;105609;1310;21964;-66
2022/12/21 20:08:22;;;;;;;20.30;8.40;;;;;;;9.60;73.90;100982.39;105549;1307;21979;-66
2022/12/21 20:10:53;;;;;;;9.80;5.80;;;;;;;9.70;73.55;100976.61;105543;1311;22008;-66
2022/12/21 20:13:21;;;;;;;12.20;7.70;;;;;;;9.77;73.31;100977.32;105553;1298;21962;-66
2022/12/21 20:15:46;;;;;;;12.30;7.00;;;;;;;9.83;73.07;100978.55;105617;1312;21982;-66
2022/12/21 20:18:22;;;;;;;11.60;6.60;;;;;;;9.83;72.78;100980.13;105586;1312;21969;-66
2022/12/21 20:20:51;;;;;;;11.90;7.10;;;;;;;9.82;72.57;100983.45;105563;1297;21987;-60
2022/12/21 20:23:17;;;;;;;11.40;6.10;;;;;;;9.79;72.67;100983.63;105495;1306;21981;-66
2022/12/21 20:25:43;;;;;;;9.80;5.40;;;;;;;9.75;72.81;100981.17;105700;1308;21969;-66
2022/12/21 20:28:17;;;;;;;11.50;5.80;;;;;;;9.73;72.74;100978.02;105596;1309;21976;-61
2022/12/21 20:30:46;;;;;;;9.60;5.30;;;;;;;9.57;73.25;100979.57;105727;1309;22781;-60
2022/12/21 20:33:14;;;;;;;10.60;5.40;;;;;;;9.50;73.78;100983.41;105645;1308;23663;-60
2022/12/21 20:35:39;;;;;;;10.10;5.90;;;;;;;9.31;74.46;100985.30;105728;1309;21982;-66
2022/12/21 20:38:21;;;;;;;12.00;5.50;;;;;;;9.15;75.52;100982.63;105713;1308;21955;-65
2022/12/21 20:40:48;;;;;;;10.90;5.60;;;;;;;9.13;75.83;100983.31;105659;1307;21982;-60
2022/12/21 20:45:59;;;;;;;13.00;7.30;;;;;;;9.18;76.09;100989.99;105645;1309;21981;-66
2022/12/21 20:48:25;;;;;;;21.40;10.30;;;;;;;9.25;75.98;100988.44;105532;1309;21967;-62
2022/12/21 20:50:50;;;;;;;47.50;18.10;;;;;;;9.27;75.99;100986.70;105567;1309;21976;-60
2022/12/21 20:53:20;;;;;;;25.20;11.10;;;;;;;9.26;76.09;100988.80;105663;1307;21979;-60
2022/12/21 20:58:31;;;;;;;11.40;6.60;;;;;;;9.09;76.52;100986.81;105737;1306;21970;-66
2022/12/21 21:00:58;;;;;;;13.10;7.20;;;;;;;9.08;76.70;100984.17;105728;1290;21971;-66
2022/12/21 21:03:28;;;;;;;12.90;7.20;;;;;;;8.98;76.98;100984.48;105630;1309;21976;-61
2022/12/21 21:05:54;;;;;;;18.20;8.70;;;;;;;8.95;77.24;100984.48;105632;1308;21970;-66
2022/12/21 21:08:21;;;;;;;15.00;8.90;;;;;;;8.94;77.42;100989.38;105600;1308;21980;-61
2022/12/21 21:11:50;;;;;;;14.30;8.50;;;;;;;8.94;77.36;100987.27;105647;1308;21982;-61
2022/12/21 21:13:33;;;;;;;13.10;6.90;;;;;;;8.94;77.37;100981.51;105618;1305;21974;-60
2022/12/21 21:15:59;;;;;;;11.60;6.90;;;;;;;8.89;77.91;100979.38;105706;1309;21980;-66
2022/12/21 21:18:24;;;;;;;12.10;6.10;;;;;;;8.89;77.99;100979.90;105655;1309;21980;-66
2022/12/21 21:23:35;;;;;;;14.90;8.00;;;;;;;8.98;77.66;100975.73;105605;1308;21977;-61
2022/12/21 21:26:01;;;;;;;15.70;8.90;;;;;;;8.97;77.79;100970.48;105648;1307;22013;-60
2022/12/21 21:28:27;;;;;;;18.60;10.00;;;;;;;8.96;77.74;100966.64;105577;1300;21985;-60
2022/12/21 21:30:55;;;;;;;14.60;7.50;;;;;;;8.91;77.83;100969.06;105610;1309;21973;-65
2022/12/21 21:33:22;;;;;;;10.50;6.70;;;;;;;8.88;78.30;100965.02;105101;1307;1002937;-60
2022/12/21 21:35:50;;;;;;;12.60;7.40;;;;;;;8.92;77.91;100958.73;105742;1299;22036;-65
2022/12/21 21:41:34;;;;;;;28.50;18.80;;;;;;;9.28;76.56;100955.35;105645;1301;21976;-61
2022/12/21 21:44:19;;;;;;;19.50;13.90;;;;;;;9.39;76.05;100951.69;105701;1309;21962;-66
2022/12/21 21:46:45;;;;;;;12.30;7.90;;;;;;;9.40;76.02;100952.92;105738;1303;21975;-65
2022/12/21 21:49:40;;;;;;;10.80;6.10;;;;;;;9.49;75.64;100952.05;105852;1307;21968;-64
2022/12/21 21:52:06;;;;;;;10.10;5.30;;;;;;;9.52;75.39;100951.35;105630;1309;21985;-65
2022/12/21 21:54:32;;;;;;;11.40;5.50;;;;;;;9.56;75.19;100945.92;105678;1309;21960;-60
2022/12/21 21:56:58;;;;;;;11.90;5.30;;;;;;;9.60;75.04;100944.71;105700;1308;21983;-65
2022/12/21 21:59:34;;;;;;;8.70;4.60;;;;;;;9.60;74.74;100948.55;105722;1304;21969;-65
2022/12/21 22:02:07;;;;;;;9.60;5.20;;;;;;;9.61;74.67;100948.04;105734;1307;21974;-65
2022/12/21 22:04:33;;;;;;;8.50;5.20;;;;;;;9.66;74.25;100944.02;105634;1309;21971;-66
2022/12/21 22:06:59;;;;;;;7.80;4.80;;;;;;;9.63;74.39;100941.04;105632;1309;21985;-61
2022/12/21 22:09:25;;;;;;;9.50;4.90;;;;;;;9.64;74.28;100938.58;105718;1307;21984;-65
2022/12/21 22:11:51;;;;;;;7.50;4.30;;;;;;;9.65;74.20;100936.82;105722;1307;21966;-61
2022/12/21 22:15:11;;;;;;;10.60;3.90;;;;;;;9.66;74.21;100934.73;105756;1308;21987;-65
2022/12/21 22:17:20;;;;;;;7.60;4.40;;;;;;;9.70;73.95;100928.60;105630;1307;21969;-65
2022/12/21 22:33:50;;;;;;;7.80;4.80;;;;;;;9.50;73.98;100902.13;103456;1309;1002976;-61
2022/12/21 22:44:30;;;;;;;10.20;5.00;;;;;;;9.43;72.98;100904.92;105712;1304;22429;-64
2022/12/21 22:46:56;;;;;;;16.20;6.70;;;;;;;9.41;72.95;100910.35;105676;1307;21975;-65
2022/12/21 22:49:22;;;;;;;9.90;5.20;;;;;;;9.40;72.86;100910.52;105684;1306;22003;-65
2022/12/21 22:51:47;;;;;;;9.40;5.30;;;;;;;9.37;72.67;100915.42;105564;1302;21960;-60
2022/12/21 22:54:14;;;;;;;11.40;5.00;;;;;;;9.35;72.67;100915.95;105605;1309;22008;-67
2022/12/21 22:56:40;;;;;;;11.00;4.60;;;;;;;9.32;72.64;100917.70;105728;1307;21977;-62
2022/12/21 22:59:07;;;;;;;8.80;4.50;;;;;;;9.28;72.54;100919.28;105763;1306;21967;-60
2022/12/21 23:01:33;;;;;;;7.40;4.40;;;;;;;9.33;72.22;100917.18;105790;1309;21974;-60
2022/12/21 23:04:01;;;;;;;9.00;4.80;;;;;;;9.32;71.85;100914.38;105717;1309;24084;-61
2022/12/21 23:06:28;;;;;;;7.60;4.00;;;;;;;9.27;71.58;100918.05;105693;1309;23181;-61
2022/12/21 23:08:54;;;;;;;9.60;4.40;;;;;;;9.28;71.21;100918.23;105713;1309;21976;-60
2022/12/21 23:11:31;;;;;;;8.40;4.20;;;;;;;9.28;71.00;100916.80;105637;1308;21965;-65
2022/12/21 23:16:42;;;;;;;8.40;4.30;;;;;;;9.23;70.69;100925.58;105730;1305;22014;-65
2022/12/21 23:19:13;;;;;;;7.60;4.10;;;;;;;9.18;70.57;100923.45;105813;1308;21978;-60
2022/12/21 23:43:10;;;;;;;9.90;4.70;;;;;;;8.69;71.03;100922.08;105650;1304;21990;-64
2022/12/21 23:45:00;;;;;;;7.80;4.20;;;;;;;8.65;70.85;100927.48;105629;1309;21965;-65
